KBMI

Central Il Regional Arpt At Bloomington-Normal Airport

Bloomington/Normal, Illinois, USA
METAR KBMI 170156Z 21009KT 10SM CLR 02/M04 A3003 RMK AO2 SLP196 T00221039
Observed Flight Rules
Dec-17 @ 01:56 UTC (23 minutes ago) Visual Flight Rules
Wind Visibility Clouds
210° at 9 knots 10 miles
  • Clear skies
Temperatures Readings
Current 2°C / 36°F
Dewpoint -4°C / 25°F
Humidity 65%
Altimeter 30.03" Hg
Pressure 1019.6 hPa
Elevation 267
METAR KBMI 170156Z 21009KT 10SM CLR 02/M04 A3003 RMK AO2 SLP196 T00221039
Observed Flight Rules
Dec-17 @ 01:56 UTC
(23 minutes ago)
VFR
Wind Visibility
210° at 9 knots 10 miles
Clouds
  • Clear skies
Temperature Dewpoint
2°C / 36°F -4°C / 25°F
Humidity Altimeter Pressure
65% 30.03" Hg 1019.6 hPa